createdAt,value
2019-03-26T00:02:31.061Z,65.26
2019-03-26T00:05:33.002Z,65.33
2019-03-26T00:08:34.938Z,65.15
2019-03-26T00:11:36.829Z,65.20
2019-03-26T00:14:38.826Z,65.09
2019-03-26T00:17:40.738Z,65.02
2019-03-26T00:20:42.693Z,65.17
2019-03-26T00:23:44.680Z,65.11
2019-03-26T00:26:46.644Z,64.87
2019-03-26T00:29:48.587Z,65.01
2019-03-26T00:32:50.508Z,64.99
2019-03-26T00:35:52.447Z,65.00
2019-03-26T00:38:54.399Z,64.90
2019-03-26T00:41:56.407Z,65.03
2019-03-26T00:44:58.368Z,65.11
2019-03-26T00:48:00.258Z,64.92
2019-03-26T00:51:02.185Z,65.01
2019-03-26T00:54:04.086Z,65.09
2019-03-26T00:57:06.064Z,64.96
2019-03-26T01:00:09.392Z,64.99
2019-03-26T01:03:11.477Z,65.06
2019-03-26T01:06:13.431Z,65.25
2019-03-26T01:09:15.358Z,65.16
2019-03-26T01:12:17.284Z,65.18
2019-03-26T01:15:19.267Z,65.05
2019-03-26T01:18:21.142Z,65.20
2019-03-26T01:21:23.107Z,65.03
2019-03-26T01:24:25.097Z,65.13
2019-03-26T01:27:27.030Z,65.17
2019-03-26T01:30:29.124Z,65.30
2019-03-26T01:33:31.001Z,65.38
2019-03-26T01:36:32.985Z,65.35
2019-03-26T01:39:34.874Z,65.56
2019-03-26T01:42:36.823Z,65.57
2019-03-26T01:45:38.702Z,65.32
2019-03-26T01:48:40.609Z,65.21
2019-03-26T01:51:42.521Z,65.29
2019-03-26T01:54:44.480Z,65.27
2019-03-26T01:57:46.401Z,65.36
2019-03-26T02:00:48.592Z,65.30
2019-03-26T02:03:50.503Z,65.53
2019-03-26T02:06:52.410Z,65.53
2019-03-26T02:09:54.371Z,65.34
2019-03-26T02:12:56.329Z,65.33
2019-03-26T02:15:59.429Z,65.36
2019-03-26T02:19:01.401Z,65.34
2019-03-26T02:22:04.632Z,65.17
2019-03-26T02:25:06.729Z,65.15
2019-03-26T02:28:08.618Z,64.98
2019-03-26T02:31:10.584Z,64.79
2019-03-26T02:34:12.511Z,64.69
2019-03-26T02:37:14.423Z,64.50
2019-03-26T02:40:16.348Z,64.49
2019-03-26T02:43:18.276Z,64.27
2019-03-26T02:46:20.284Z,64.36
2019-03-26T02:49:22.221Z,64.32
2019-03-26T02:52:24.198Z,64.46
2019-03-26T02:55:26.105Z,64.29
2019-03-26T02:58:28.084Z,63.97
2019-03-26T03:01:30.250Z,63.77
2019-03-26T03:04:32.202Z,63.82
2019-03-26T03:07:34.147Z,63.62
2019-03-26T03:10:36.083Z,63.66
2019-03-26T03:13:38.040Z,63.88
2019-03-26T03:16:40.034Z,63.88
2019-03-26T03:19:42.001Z,63.73
2019-03-26T03:22:43.942Z,63.50
2019-03-26T03:25:45.890Z,63.45
2019-03-26T03:28:47.957Z,63.50
2019-03-26T03:31:49.928Z,63.62
2019-03-26T03:34:51.959Z,63.36
2019-03-26T03:37:53.898Z,63.26
2019-03-26T03:40:55.928Z,63.44
2019-03-26T03:43:57.825Z,63.19
2019-03-26T03:47:01.367Z,62.90
2019-03-26T03:50:05.542Z,62.69
2019-03-26T03:53:08.711Z,62.68
2019-03-26T03:56:13.246Z,62.90
2019-03-26T03:59:16.022Z,62.68
2019-03-26T04:02:18.279Z,62.82
2019-03-26T04:05:20.309Z,62.86
2019-03-26T04:08:22.234Z,62.81
2019-03-26T04:11:24.189Z,62.90
2019-03-26T04:14:26.153Z,63.05
2019-03-26T04:17:28.145Z,63.14
2019-03-26T04:20:30.031Z,63.08
2019-03-26T04:23:33.309Z,62.98
2019-03-26T04:26:36.087Z,62.96
2019-03-26T04:29:40.906Z,63.04
2019-03-26T04:32:42.907Z,62.91
2019-03-26T04:35:44.867Z,62.56
2019-03-26T04:38:46.865Z,62.34
2019-03-26T04:41:48.824Z,62.24
2019-03-26T04:44:50.803Z,62.31
2019-03-26T04:47:52.763Z,62.30
2019-03-26T04:50:54.787Z,62.44
2019-03-26T04:53:56.767Z,62.67
2019-03-26T04:56:58.841Z,62.82
2019-03-26T05:00:00.744Z,62.96
2019-03-26T05:03:02.914Z,63.27
2019-03-26T05:06:04.842Z,63.25
2019-03-26T05:09:06.831Z,63.42
2019-03-26T05:12:08.749Z,63.29
2019-03-26T05:15:11.121Z,63.39
2019-03-26T05:18:13.043Z,63.47
2019-03-26T05:21:16.318Z,63.46
2019-03-26T05:24:18.289Z,63.49
2019-03-26T05:27:22.159Z,63.56
2019-03-26T05:30:24.667Z,63.25
2019-03-26T05:33:27.830Z,63.34
2019-03-26T05:36:29.882Z,63.19
2019-03-26T05:39:31.827Z,62.97
2019-03-26T05:42:33.789Z,62.96
2019-03-26T05:45:35.873Z,62.87
2019-03-26T05:48:37.773Z,62.99
2019-03-26T05:51:39.750Z,63.30
2019-03-26T05:54:41.665Z,63.39
2019-03-26T05:57:43.597Z,63.60
2019-03-26T06:00:45.551Z,63.42
2019-03-26T06:03:47.713Z,63.29
2019-03-26T06:06:49.711Z,62.99
2019-03-26T06:09:51.661Z,62.67
2019-03-26T06:12:53.694Z,60.23
2019-03-26T06:15:55.698Z,57.76
2019-03-26T06:18:57.690Z,57.33
2019-03-26T06:21:59.625Z,57.03
2019-03-26T06:25:01.544Z,57.21
2019-03-26T06:28:03.538Z,56.99
2019-03-26T06:31:05.484Z,57.42
2019-03-26T06:34:10.383Z,56.93
2019-03-26T06:37:17.692Z,56.99
2019-03-26T06:40:15.657Z,56.68
2019-03-26T06:43:17.624Z,56.52
2019-03-26T06:46:19.535Z,55.79
2019-03-26T06:49:21.584Z,55.34
2019-03-26T06:52:23.566Z,54.76
2019-03-26T06:55:25.614Z,54.48
2019-03-26T06:58:28.637Z,52.63
2019-03-26T07:01:30.879Z,51.35
2019-03-26T07:04:32.984Z,50.09
2019-03-26T07:07:35.008Z,50.98
2019-03-26T07:10:38.312Z,51.51
2019-03-26T07:13:40.270Z,51.03
2019-03-26T07:16:42.215Z,50.85
2019-03-26T07:19:44.184Z,49.66
2019-03-26T07:22:46.154Z,48.33
2019-03-26T07:25:48.100Z,47.76
2019-03-26T07:28:50.088Z,48.83
2019-03-26T07:31:52.023Z,48.04
2019-03-26T07:34:54.107Z,48.96
2019-03-26T07:37:56.045Z,49.20
2019-03-26T07:40:58.070Z,49.10
2019-03-26T07:44:00.085Z,48.99
2019-03-26T07:47:02.057Z,48.88
2019-03-26T07:50:06.166Z,48.13
2019-03-26T07:53:08.166Z,47.74
2019-03-26T07:56:10.096Z,46.88
2019-03-26T07:59:12.070Z,46.53
2019-03-26T08:02:14.038Z,46.66
2019-03-26T08:05:29.060Z,47.27
2019-03-26T08:08:19.997Z,47.29
2019-03-26T08:11:22.001Z,45.79
2019-03-26T08:14:23.933Z,45.58
2019-03-26T08:17:25.998Z,44.37
2019-03-26T08:20:27.912Z,44.34
2019-03-26T08:23:29.838Z,44.76
2019-03-26T08:26:32.079Z,45.51
2019-03-26T08:29:34.066Z,44.88
2019-03-26T08:32:37.255Z,44.68
2019-03-26T08:35:41.079Z,43.35
2019-03-26T08:38:43.001Z,43.47
2019-03-26T08:41:45.019Z,43.07
2019-03-26T08:44:46.998Z,43.07
2019-03-26T08:47:50.446Z,43.17
2019-03-26T08:50:52.382Z,43.25
2019-03-26T08:53:54.363Z,43.62
2019-03-26T08:56:56.344Z,42.58
2019-03-26T08:59:58.261Z,42.84
2019-03-26T09:03:00.229Z,43.80
2019-03-26T09:06:02.425Z,43.81
2019-03-26T09:09:06.405Z,44.45
2019-03-26T09:12:08.348Z,44.57
2019-03-26T09:15:14.061Z,44.60
2019-03-26T09:18:14.590Z,43.85
2019-03-26T09:21:16.591Z,44.21
2019-03-26T09:24:18.515Z,43.71
2019-03-26T09:27:21.027Z,43.77
2019-03-26T09:30:22.940Z,43.75
2019-03-26T09:33:24.875Z,43.96
2019-03-26T09:36:26.841Z,44.14
2019-03-26T09:39:28.884Z,44.25
2019-03-26T09:42:30.885Z,44.01
2019-03-26T09:45:32.917Z,43.33
2019-03-26T09:48:34.901Z,43.21
2019-03-26T09:51:36.874Z,43.14
2019-03-26T09:54:38.801Z,43.64
2019-03-26T09:57:40.773Z,43.66
2019-03-26T10:00:42.843Z,41.55
2019-03-26T10:03:45.013Z,41.43
2019-03-26T10:06:47.197Z,43.08
2019-03-26T10:09:49.208Z,42.82
2019-03-26T10:12:51.240Z,43.78
2019-03-26T10:15:53.350Z,43.87
2019-03-26T10:18:55.313Z,42.62
2019-03-26T10:21:57.278Z,41.73
2019-03-26T10:24:59.272Z,41.98
2019-03-26T10:28:01.324Z,41.23
2019-03-26T10:31:03.248Z,41.07
2019-03-26T10:34:05.204Z,41.29
2019-03-26T10:37:08.293Z,41.22
2019-03-26T10:40:13.940Z,42.10
2019-03-26T10:43:15.890Z,42.17
2019-03-26T10:46:18.352Z,42.69
2019-03-26T10:49:20.323Z,42.95
2019-03-26T10:52:22.252Z,42.94
2019-03-26T10:55:24.237Z,43.33
2019-03-26T10:58:26.166Z,43.04
2019-03-26T11:01:28.152Z,43.51
2019-03-26T11:04:30.476Z,43.66
2019-03-26T11:07:32.804Z,43.28
2019-03-26T11:10:37.826Z,43.15
2019-03-26T11:13:39.879Z,42.43
2019-03-26T11:16:41.831Z,42.75
2019-03-26T11:19:46.565Z,43.38
2019-03-26T11:22:48.664Z,44.57
2019-03-26T11:25:50.756Z,45.74
2019-03-26T11:28:52.801Z,46.51
2019-03-26T11:31:54.868Z,47.72
2019-03-26T11:34:56.851Z,47.73
2019-03-26T11:37:58.948Z,47.14
2019-03-26T11:41:00.936Z,46.23
2019-03-26T11:44:04.685Z,46.05
2019-03-26T11:47:06.932Z,46.18
2019-03-26T11:50:11.070Z,45.19
2019-03-26T11:53:13.055Z,45.17
2019-03-26T11:56:15.094Z,44.93
2019-03-26T11:59:17.010Z,44.99
2019-03-26T12:02:18.990Z,45.01
2019-03-26T12:05:21.671Z,44.85
2019-03-26T12:08:23.840Z,44.17
2019-03-26T12:11:25.796Z,44.33
2019-03-26T12:14:27.878Z,45.12
2019-03-26T12:17:29.873Z,45.12
2019-03-26T12:20:31.912Z,45.56
2019-03-26T12:23:33.838Z,45.59
2019-03-26T12:26:35.911Z,45.14
2019-03-26T12:29:37.910Z,44.78
2019-03-26T12:32:41.229Z,44.83
2019-03-26T12:35:43.513Z,45.46
2019-03-26T12:38:45.609Z,46.32
2019-03-26T12:41:47.547Z,46.29
2019-03-26T12:44:49.552Z,45.75
2019-03-26T12:47:51.489Z,45.83
2019-03-26T12:50:53.519Z,44.54
2019-03-26T12:53:55.452Z,44.63
2019-03-26T12:56:57.520Z,43.48
2019-03-26T13:00:00.823Z,41.75
2019-03-26T13:03:02.744Z,40.39
2019-03-26T13:06:04.656Z,40.03
2019-03-26T13:09:07.936Z,39.80
2019-03-26T13:12:09.832Z,40.73
2019-03-26T13:15:11.839Z,40.55
2019-03-26T13:18:13.763Z,41.05
2019-03-26T13:21:15.703Z,40.27
2019-03-26T13:24:17.624Z,40.74
2019-03-26T13:27:19.579Z,41.09
2019-03-26T13:30:24.573Z,41.77
2019-03-26T13:33:26.591Z,41.67
2019-03-26T13:36:28.554Z,41.74
2019-03-26T13:39:30.596Z,42.22
2019-03-26T13:42:32.574Z,41.91
2019-03-26T13:45:34.549Z,41.87
2019-03-26T13:48:37.597Z,41.86
2019-03-26T13:51:39.594Z,42.21
2019-03-26T13:54:41.542Z,42.18
2019-03-26T13:57:43.533Z,42.18
2019-03-26T14:00:45.559Z,43.04
2019-03-26T14:03:47.762Z,42.76
2019-03-26T14:06:52.369Z,43.08
2019-03-26T14:09:53.800Z,43.80
2019-03-26T14:12:55.796Z,43.49
2019-03-26T14:15:57.770Z,44.25
2019-03-26T14:18:59.781Z,44.04
2019-03-26T14:22:02.242Z,42.81
2019-03-26T14:25:04.323Z,42.55
2019-03-26T14:28:06.243Z,42.60
2019-03-26T14:31:08.299Z,42.50
2019-03-26T14:34:10.852Z,42.39
2019-03-26T14:37:12.869Z,42.38
2019-03-26T14:40:15.076Z,42.40
2019-03-26T14:43:17.117Z,43.23
2019-03-26T14:46:19.110Z,43.04
2019-03-26T14:49:21.106Z,43.66
2019-03-26T14:52:23.129Z,43.23
2019-03-26T14:55:25.082Z,43.10
2019-03-26T14:58:27.021Z,43.29
2019-03-26T15:01:28.964Z,42.98
2019-03-26T15:04:30.890Z,42.54
2019-03-26T15:07:32.839Z,43.39
2019-03-26T15:10:34.891Z,43.06
2019-03-26T15:13:36.812Z,43.25
2019-03-26T15:16:38.729Z,43.33
2019-03-26T15:19:40.673Z,43.50
2019-03-26T15:22:42.584Z,43.89
2019-03-26T15:25:44.626Z,43.63
2019-03-26T15:28:47.715Z,43.89
2019-03-26T15:31:50.029Z,44.09
2019-03-26T15:34:53.177Z,44.78
2019-03-26T15:37:55.456Z,44.83
2019-03-26T15:40:57.441Z,44.82
2019-03-26T15:43:59.318Z,44.79
2019-03-26T15:47:01.298Z,45.35
2019-03-26T15:50:06.072Z,45.01
2019-03-26T15:53:08.197Z,45.43
2019-03-26T15:56:10.110Z,45.51
2019-03-26T15:59:12.056Z,45.72
2019-03-26T16:02:13.917Z,45.80
2019-03-26T16:05:15.859Z,45.85
2019-03-26T16:08:18.970Z,46.22
2019-03-26T16:11:34.771Z,46.35
2019-03-26T16:14:27.990Z,46.38
2019-03-26T16:17:28.777Z,46.63
2019-03-26T16:20:30.633Z,46.58
2019-03-26T16:23:32.601Z,46.91
2019-03-26T16:26:34.469Z,46.93
2019-03-26T16:29:36.429Z,46.96
2019-03-26T16:32:38.367Z,47.21
2019-03-26T16:35:40.573Z,47.13
2019-03-26T16:38:43.942Z,47.38
2019-03-26T16:41:49.331Z,47.57
2019-03-26T16:44:51.636Z,47.47
2019-03-26T16:47:54.023Z,47.66
2019-03-26T16:50:56.817Z,47.72
2019-03-26T16:53:59.770Z,47.75
2019-03-26T16:57:03.308Z,47.52
2019-03-26T17:00:07.550Z,47.86
2019-03-26T17:03:11.560Z,47.79
2019-03-26T17:06:14.274Z,47.78
2019-03-26T17:09:16.509Z,47.91
2019-03-26T17:12:18.593Z,47.89
2019-03-26T17:15:21.810Z,48.25
2019-03-26T17:18:23.748Z,48.45
2019-03-26T17:21:25.676Z,48.57
2019-03-26T17:24:27.584Z,48.66
2019-03-26T17:27:29.519Z,48.91
2019-03-26T17:30:31.447Z,48.97
2019-03-26T17:33:33.406Z,49.60
2019-03-26T17:36:35.312Z,50.01
2019-03-26T17:39:37.994Z,50.11
2019-03-26T17:42:42.302Z,50.53
2019-03-26T17:45:44.332Z,51.31
2019-03-26T17:48:48.127Z,52.65
2019-03-26T17:51:50.506Z,53.19
2019-03-26T17:54:52.434Z,53.06
2019-03-26T17:57:54.349Z,53.25
2019-03-26T18:00:57.361Z,53.16
2019-03-26T18:04:02.925Z,52.89
2019-03-26T18:07:05.612Z,52.92
2019-03-26T18:10:09.817Z,53.29
2019-03-26T18:13:16.561Z,53.40
2019-03-26T18:16:18.547Z,53.26
2019-03-26T18:19:25.064Z,53.46
2019-03-26T18:22:28.104Z,53.42
2019-03-26T18:25:30.289Z,53.89
2019-03-26T18:28:32.570Z,54.10
2019-03-26T18:31:34.472Z,55.44
2019-03-26T18:34:39.722Z,56.22
2019-03-26T18:37:41.673Z,56.70
2019-03-26T18:40:44.349Z,57.31
2019-03-26T18:43:47.689Z,58.60
2019-03-26T18:46:53.220Z,59.50
2019-03-26T18:49:55.185Z,60.99
2019-03-26T18:52:59.095Z,62.22
2019-03-26T18:56:01.052Z,62.78
2019-03-26T18:59:03.220Z,63.25
2019-03-26T19:02:05.176Z,62.36
2019-03-26T19:05:08.277Z,62.57
2019-03-26T19:08:10.157Z,62.33
2019-03-26T19:11:12.219Z,62.34
2019-03-26T19:14:14.548Z,61.80
2019-03-26T19:17:16.531Z,62.18
2019-03-26T19:20:20.071Z,62.47
2019-03-26T19:23:25.092Z,62.55
2019-03-26T19:26:29.883Z,63.19
2019-03-26T19:29:32.924Z,62.95
2019-03-26T19:32:35.070Z,63.03
2019-03-26T19:35:37.028Z,63.10
2019-03-26T19:38:39.027Z,62.55
2019-03-26T19:41:43.131Z,62.40
2019-03-26T19:44:45.122Z,62.65
2019-03-26T19:47:47.379Z,62.93
2019-03-26T19:50:51.200Z,63.34
2019-03-26T19:53:53.186Z,63.65
2019-03-26T19:56:56.309Z,63.95
2019-03-26T19:59:58.324Z,64.42
2019-03-26T20:03:01.903Z,64.04
2019-03-26T20:06:13.379Z,63.59
2019-03-26T20:09:13.036Z,63.66
2019-03-26T20:12:21.647Z,63.79
2019-03-26T20:15:25.808Z,64.34
2019-03-26T20:18:28.084Z,64.50
2019-03-26T20:21:31.441Z,64.68
2019-03-26T20:24:33.487Z,64.91
2019-03-26T20:27:36.004Z,64.79
2019-03-26T20:30:38.612Z,64.87
2019-03-26T20:33:42.705Z,64.79
2019-03-26T20:36:47.328Z,64.64
2019-03-26T20:39:51.062Z,64.35
2019-03-26T20:42:55.552Z,64.62
2019-03-26T20:45:57.548Z,64.46
2019-03-26T20:48:59.507Z,64.28
2019-03-26T20:52:01.429Z,64.17
2019-03-26T20:55:08.621Z,64.31
2019-03-26T20:58:10.573Z,64.28
2019-03-26T21:01:16.531Z,64.81
2019-03-26T21:04:21.056Z,64.76
2019-03-26T21:07:24.352Z,64.64
2019-03-26T21:10:28.151Z,64.35
2019-03-26T21:13:30.161Z,64.01
2019-03-26T21:16:32.558Z,63.90
2019-03-26T21:19:34.882Z,64.10
2019-03-26T21:22:37.396Z,64.39
2019-03-26T21:25:39.346Z,64.35
2019-03-26T21:28:41.377Z,64.28
2019-03-26T21:31:43.310Z,64.38
2019-03-26T21:34:45.378Z,64.18
2019-03-26T21:37:47.472Z,64.08
2019-03-26T21:40:49.469Z,63.97
2019-03-26T21:44:03.602Z,63.67
2019-03-26T21:46:55.281Z,63.57
2019-03-26T21:49:57.207Z,63.69
2019-03-26T21:53:01.067Z,63.64
2019-03-26T21:56:06.882Z,63.34
2019-03-26T21:59:07.437Z,63.45
2019-03-26T22:02:09.473Z,63.30
2019-03-26T22:05:11.641Z,63.42
2019-03-26T22:08:13.543Z,63.39
2019-03-26T22:11:15.658Z,63.56
2019-03-26T22:14:18.620Z,63.49
2019-03-26T22:17:21.108Z,63.50
2019-03-26T22:20:23.059Z,63.33
2019-03-26T22:23:25.063Z,63.28
2019-03-26T22:26:27.037Z,63.15
2019-03-26T22:29:29.072Z,62.90
2019-03-26T22:32:31.024Z,62.68
2019-03-26T22:35:32.991Z,62.65
2019-03-26T22:38:34.924Z,62.73
2019-03-26T22:41:38.155Z,62.79
2019-03-26T22:44:40.076Z,62.75
2019-03-26T22:47:42.159Z,62.59
2019-03-26T22:50:44.070Z,62.47
2019-03-26T22:53:46.029Z,62.48
2019-03-26T22:56:48.006Z,62.39
2019-03-26T22:59:50.024Z,62.47
2019-03-26T23:02:51.968Z,62.38
2019-03-26T23:05:53.876Z,62.31
2019-03-26T23:08:55.872Z,62.17
2019-03-26T23:11:57.804Z,62.08
2019-03-26T23:15:00.510Z,61.97
2019-03-26T23:18:02.797Z,61.82
2019-03-26T23:21:04.791Z,61.83
2019-03-26T23:24:06.753Z,61.81
2019-03-26T23:27:08.917Z,61.78
2019-03-26T23:30:11.874Z,61.62
2019-03-26T23:33:15.094Z,61.63
2019-03-26T23:36:17.128Z,61.65
2019-03-26T23:39:19.120Z,61.65
2019-03-26T23:42:21.078Z,61.90
2019-03-26T23:45:23.112Z,61.99
2019-03-26T23:48:25.160Z,62.14
2019-03-26T23:51:27.167Z,62.32
2019-03-26T23:54:29.108Z,62.18
2019-03-26T23:57:31.091Z,62.32
